CZEM/ZEM METAR and TAF weather

Enter ICAO airport designator
Station Type Date Time Source
CZEM METAR 2019/02/22 21:00 UTC NOAA

CZEM 222100Z 20004KT 180V300 15SM BKN060 OVC070 M14/M18 A3038 RMK SC5AS3 LAST STFD OBS/NEXT 241500 UTC SLP290


Station Type Date Time Source
CZEM Decoded METAR 2019/02/22 21:00 UTC NOAA

Eastmain River Airport, Canada (CZEM) 52-14N 078-31W
Feb 22, 2019 - 04:00 PM EST / 2019.02.22 2100 UTC
Wind: from the SSW (200 degrees) at 5 MPH (4 KT) (direction variable):0
Visibility: 15 mile(s):0
Sky conditions: overcast
Temperature: 6 F (-14 C)
Windchill: -4 F (-20 C):1
Dew Point: 0 F (-18 C)
Relative Humidity: 71%
Pressure (altimeter): 30.38 in. Hg (1028 hPa)
ob: CZEM 222100Z 20004KT 180V300 15SM BKN060 OVC070 M14/M18 A3038 RMK SC5AS3 LAST STFD OBS/NEXT 241500 UTC SLP290
cycle: 21

Station Type Date Time Source
CZEM TAF UTC NOAA

Error!


Example: see airport list